createdAt,value
2023-04-15T00:01:19.384Z,96424.50
2023-04-15T00:03:51.363Z,96412.63
2023-04-15T00:06:20.559Z,96416.91
2023-04-15T00:08:49.088Z,96421.56
2023-04-15T00:11:17.564Z,96411.94
2023-04-15T00:13:46.202Z,96419.25
2023-04-15T00:16:16.580Z,96413.28
2023-04-15T00:18:45.132Z,96396.94
2023-04-15T00:21:13.513Z,96402.22
2023-04-15T00:23:44.758Z,96395.47
2023-04-15T00:26:13.428Z,96401.59
2023-04-15T00:28:41.788Z,96401.75
2023-04-15T00:31:10.790Z,96393.81
2023-04-15T00:33:40.594Z,96393.16
2023-04-15T00:36:12.504Z,96385.22
2023-04-15T00:38:43.104Z,96377.47
2023-04-15T00:41:12.935Z,96384.38
2023-04-15T00:43:45.393Z,96379.94
2023-04-15T00:46:16.061Z,96384.56
2023-04-15T00:48:46.301Z,96381.09
2023-04-15T00:51:14.793Z,96387.03
2023-04-15T00:53:43.850Z,96384.38
2023-04-15T00:56:12.289Z,96389.03
2023-04-15T00:58:40.704Z,96389.03
2023-04-15T01:01:09.111Z,96389.22
2023-04-15T01:03:37.921Z,96392.50
2023-04-15T01:06:08.508Z,96385.56
2023-04-15T01:08:36.940Z,96399.78
2023-04-15T01:11:05.653Z,96394.66
2023-04-15T01:13:35.590Z,96395.66
2023-04-15T01:16:04.436Z,96390.34
2023-04-15T01:18:36.326Z,96388.06
2023-04-15T01:21:08.046Z,96384.44
2023-04-15T01:23:38.889Z,96382.75
2023-04-15T01:26:10.028Z,96386.06
2023-04-15T01:28:39.033Z,96380.13
2023-04-15T01:31:08.935Z,96382.75
2023-04-15T01:33:38.070Z,96389.72
2023-04-15T01:36:09.726Z,96399.47
2023-04-15T01:38:38.865Z,96385.75
2023-04-15T01:41:08.679Z,96393.69
2023-04-15T01:43:37.794Z,96379.47
2023-04-15T01:46:07.147Z,96391.53
2023-04-15T01:48:35.886Z,96388.06
2023-04-15T01:51:04.304Z,96387.06
2023-04-15T01:53:32.648Z,96379.66
2023-04-15T01:56:01.425Z,96382.94
2023-04-15T01:58:31.499Z,96388.22
2023-04-15T02:00:59.786Z,96383.78
2023-04-15T02:03:28.792Z,96397.00
2023-04-15T02:05:57.660Z,96378.31
2023-04-15T02:08:26.033Z,96374.81
2023-04-15T02:10:54.321Z,96381.78
2023-04-15T02:13:22.684Z,96374.03
2023-04-15T02:15:52.544Z,96369.53
2023-04-15T02:18:20.798Z,96369.53
2023-04-15T02:20:52.941Z,96369.53
2023-04-15T02:23:21.305Z,96373.03
2023-04-15T02:25:53.234Z,96381.97
2023-04-15T02:28:22.590Z,96378.47
2023-04-15T02:30:53.486Z,96374.19
2023-04-15T02:33:22.974Z,96378.66
2023-04-15T02:35:51.423Z,96383.28
2023-04-15T02:38:19.774Z,96371.72
2023-04-15T02:40:49.714Z,96380.78
2023-04-15T02:43:18.393Z,96371.06
2023-04-15T02:45:48.112Z,96368.25
2023-04-15T02:48:19.515Z,96364.13
2023-04-15T02:50:48.154Z,96363.47
2023-04-15T02:53:17.487Z,96373.03
2023-04-15T02:55:46.219Z,96367.97
2023-04-15T02:58:14.502Z,96370.09
2023-04-15T03:00:42.804Z,96371.72
2023-04-15T03:03:11.200Z,96361.31
2023-04-15T03:05:41.106Z,96364.81
2023-04-15T03:08:09.404Z,96360.69
2023-04-15T03:10:37.732Z,96363.16
2023-04-15T03:13:06.022Z,96369.25
2023-04-15T03:15:34.749Z,96370.94
2023-04-15T03:18:03.150Z,96367.63
2023-04-15T03:20:32.699Z,96372.75
2023-04-15T03:23:02.563Z,96368.28
2023-04-15T03:25:30.900Z,96370.44
2023-04-15T03:27:59.330Z,96377.19
2023-04-15T03:30:27.612Z,96375.38
2023-04-15T03:32:56.033Z,96373.75
2023-04-15T03:35:24.420Z,96369.25
2023-04-15T03:37:52.708Z,96381.69
2023-04-15T03:40:23.169Z,96368.47
2023-04-15T03:42:51.476Z,96371.91
2023-04-15T03:45:19.805Z,96374.53
2023-04-15T03:47:49.786Z,96367.63
2023-04-15T03:50:21.214Z,96372.56
2023-04-15T03:52:51.164Z,96380.66
2023-04-15T03:55:21.088Z,96378.19
2023-04-15T03:57:49.568Z,96372.06
2023-04-15T04:00:17.901Z,96379.03
2023-04-15T04:02:46.377Z,96380.16
2023-04-15T04:05:14.786Z,96385.97
2023-04-15T04:07:43.061Z,96384.16
2023-04-15T04:10:14.873Z,96388.44
2023-04-15T04:12:44.557Z,96386.81
2023-04-15T04:15:13.232Z,96385.16
2023-04-15T04:17:41.642Z,96392.25
2023-04-15T04:20:13.566Z,96384.31
2023-04-15T04:22:42.187Z,96387.81
2023-04-15T04:25:11.369Z,96388.16
2023-04-15T04:27:39.663Z,96398.22
2023-04-15T04:30:10.513Z,96393.09
2023-04-15T04:32:38.886Z,96399.19
2023-04-15T04:35:07.786Z,96394.72
2023-04-15T04:37:36.313Z,96399.19
2023-04-15T04:40:05.215Z,96400.84
2023-04-15T04:42:33.659Z,96404.97
2023-04-15T04:45:02.042Z,96403.00
2023-04-15T04:47:31.812Z,96411.72
2023-04-15T04:50:03.584Z,96408.91
2023-04-15T04:52:31.844Z,96408.13
2023-04-15T04:55:00.149Z,96407.28
2023-04-15T04:57:28.472Z,96406.66
2023-04-15T04:59:56.815Z,96414.41
2023-04-15T05:02:27.249Z,96412.44
2023-04-15T05:04:57.041Z,96414.59
2023-04-15T05:07:25.739Z,96419.53
2023-04-15T05:09:57.253Z,96411.94
2023-04-15T05:12:25.681Z,96406.00
2023-04-15T05:14:54.023Z,96416.75
2023-04-15T05:17:22.540Z,96413.94
2023-04-15T05:19:50.931Z,96411.31
2023-04-15T05:22:20.642Z,96408.47
2023-04-15T05:24:48.941Z,96413.75
2023-04-15T05:27:17.197Z,96423.00
2023-04-15T05:29:45.583Z,96413.59
2023-04-15T05:32:13.866Z,96418.53
2023-04-15T05:34:45.149Z,96417.69
2023-04-15T05:37:13.463Z,96422.34
2023-04-15T05:39:43.139Z,96424.16
2023-04-15T05:42:11.444Z,96417.56
2023-04-15T05:44:39.734Z,96420.34
2023-04-15T05:47:11.433Z,96417.38
2023-04-15T05:49:39.701Z,96418.22
2023-04-15T05:52:08.091Z,96412.75
2023-04-15T05:54:36.655Z,96415.91
2023-04-15T05:57:06.327Z,96409.13
2023-04-15T05:59:43.300Z,96421.34
2023-04-15T06:02:12.135Z,96422.34
2023-04-15T06:04:40.723Z,96415.06
2023-04-15T06:07:09.071Z,96424.44
2023-04-15T06:09:40.522Z,96431.06
2023-04-15T06:12:12.348Z,96427.63
2023-04-15T06:14:41.364Z,96428.41
2023-04-15T06:17:09.971Z,96439.66
2023-04-15T06:19:38.276Z,96439.16
2023-04-15T06:22:09.936Z,96438.34
2023-04-15T06:24:38.246Z,96439.97
2023-04-15T06:27:06.545Z,96438.34
2023-04-15T06:29:36.409Z,96430.25
2023-04-15T06:32:04.747Z,96429.09
2023-04-15T06:34:33.073Z,96436.84
2023-04-15T06:37:01.626Z,96426.97
2023-04-15T06:39:29.936Z,96428.59
2023-04-15T06:41:58.283Z,96437.88
2023-04-15T06:44:26.775Z,96439.66
2023-04-15T06:46:56.695Z,96444.94
2023-04-15T06:49:27.316Z,96451.38
2023-04-15T06:51:55.630Z,96452.38
2023-04-15T06:54:23.941Z,96452.22
2023-04-15T06:56:55.744Z,96457.16
2023-04-15T06:59:27.945Z,96455.50
2023-04-15T07:02:00.744Z,96450.22
2023-04-15T07:04:29.137Z,96454.53
2023-04-15T07:06:57.442Z,96455.16
2023-04-15T07:09:26.675Z,96456.50
2023-04-15T07:11:54.979Z,96453.38
2023-04-15T07:14:23.326Z,96452.53
2023-04-15T07:16:51.805Z,96454.84
2023-04-15T07:19:24.398Z,96458.47
2023-04-15T07:21:52.736Z,96454.50
2023-04-15T07:24:21.207Z,96447.44
2023-04-15T07:26:49.653Z,96456.34
2023-04-15T07:29:17.943Z,96455.53
2023-04-15T07:31:46.426Z,96450.41
2023-04-15T07:34:14.684Z,96449.94
2023-04-15T07:36:44.615Z,96457.34
2023-04-15T07:39:12.873Z,96443.16
2023-04-15T07:41:41.196Z,96449.09
2023-04-15T07:44:09.596Z,96453.22
2023-04-15T07:46:38.616Z,96455.34
2023-04-15T07:49:07.541Z,96457.53
2023-04-15T07:51:37.335Z,96459.00
2023-04-15T07:54:07.437Z,96460.47
2023-04-15T07:56:35.887Z,96463.28
2023-04-15T07:59:06.078Z,96468.41
2023-04-15T08:01:34.430Z,96472.88
2023-04-15T08:04:06.178Z,96472.38
2023-04-15T08:06:34.810Z,96480.47
2023-04-15T08:09:03.372Z,96478.47
2023-04-15T08:11:33.251Z,96473.06
2023-04-15T08:14:03.741Z,96483.75
2023-04-15T08:16:32.191Z,96475.03
2023-04-15T08:19:01.156Z,96485.44
2023-04-15T08:21:35.927Z,96480.00
2023-04-15T08:24:04.403Z,96481.47
2023-04-15T08:26:34.078Z,96484.13
2023-04-15T08:29:02.758Z,96488.75
2023-04-15T08:31:31.640Z,96493.41
2023-04-15T08:34:00.355Z,96481.66
2023-04-15T08:36:28.768Z,96490.44
2023-04-15T08:38:57.047Z,96495.22
2023-04-15T08:41:27.243Z,96490.09
2023-04-15T08:44:00.261Z,96496.38
2023-04-15T08:46:29.141Z,96489.41
2023-04-15T08:48:59.890Z,96493.88
2023-04-15T08:51:29.618Z,96487.59
2023-04-15T08:53:58.305Z,96490.91
2023-04-15T08:56:27.983Z,96500.50
2023-04-15T08:58:58.328Z,96492.72
2023-04-15T09:01:26.960Z,96492.56
2023-04-15T09:03:55.662Z,96496.03
2023-04-15T09:06:24.790Z,96494.38
2023-04-15T09:08:53.514Z,96503.81
2023-04-15T09:11:26.463Z,96494.53
2023-04-15T09:13:54.731Z,96500.66
2023-04-15T09:16:24.616Z,96504.78
2023-04-15T09:18:58.949Z,96503.13
2023-04-15T09:21:30.575Z,96515.84
2023-04-15T09:24:01.994Z,96512.22
2023-04-15T09:26:38.574Z,96515.53
2023-04-15T09:29:13.498Z,96511.88
2023-04-15T09:31:43.884Z,96518.69
2023-04-15T09:34:12.484Z,96515.69
2023-04-15T09:36:55.268Z,96517.34
2023-04-15T09:39:27.112Z,96519.97
2023-04-15T09:42:08.358Z,96529.88
2023-04-15T09:44:36.719Z,96529.88
2023-04-15T09:47:07.036Z,96523.63
2023-04-15T09:49:35.492Z,96533.88
2023-04-15T09:52:06.269Z,96525.28
2023-04-15T09:54:36.953Z,96537.31
2023-04-15T09:57:10.140Z,96525.94
2023-04-15T09:59:38.701Z,96528.91
2023-04-15T10:02:08.494Z,96527.09
2023-04-15T10:04:42.153Z,96530.41
2023-04-15T10:07:11.643Z,96526.75
2023-04-15T10:09:40.521Z,96531.03
2023-04-15T10:12:09.098Z,96534.53
2023-04-15T10:14:39.532Z,96542.28
2023-04-15T10:17:12.610Z,96534.69
2023-04-15T10:19:41.823Z,96541.13
2023-04-15T10:22:10.407Z,96538.66
2023-04-15T10:24:41.427Z,96540.50
2023-04-15T10:27:10.137Z,96538.00
2023-04-15T10:29:43.808Z,96546.41
2023-04-15T10:32:14.823Z,96538.47
2023-04-15T10:34:43.728Z,96541.81
2023-04-15T10:37:12.458Z,96536.97
2023-04-15T10:39:43.424Z,96540.31
2023-04-15T10:42:13.807Z,96539.13
2023-04-15T10:44:45.140Z,96535.50
2023-04-15T10:47:20.086Z,96537.81
2023-04-15T10:49:51.056Z,96535.50
2023-04-15T10:52:25.182Z,96539.81
2023-04-15T10:55:04.656Z,96526.88
2023-04-15T10:57:39.064Z,96528.56
2023-04-15T11:00:16.015Z,96531.84
2023-04-15T11:02:48.493Z,96533.69
2023-04-15T11:05:18.472Z,96538.13
2023-04-15T11:07:56.220Z,96539.59
2023-04-15T11:10:55.259Z,96539.59
2023-04-15T11:13:36.757Z,96544.91
2023-04-15T11:16:05.143Z,96547.22
2023-04-15T11:18:35.644Z,96548.03
2023-04-15T11:21:07.251Z,96554.97
2023-04-15T11:23:46.961Z,96559.94
2023-04-15T11:26:15.852Z,96547.38
2023-04-15T11:28:45.986Z,96560.59
2023-04-15T11:31:15.722Z,96558.63
2023-04-15T11:33:56.482Z,96563.59
2023-04-15T11:36:28.248Z,96577.16
2023-04-15T11:38:59.190Z,96571.84
2023-04-15T11:41:27.620Z,96574.84
2023-04-15T11:43:56.129Z,96575.34
2023-04-15T11:46:31.879Z,96577.16
2023-04-15T11:49:01.698Z,96585.09
2023-04-15T11:51:35.006Z,96580.47
2023-04-15T11:54:03.652Z,96577.66
2023-04-15T11:56:32.358Z,96578.47
2023-04-15T11:59:01.228Z,96584.91
2023-04-15T12:01:33.816Z,96589.88
2023-04-15T12:04:04.639Z,96591.53
2023-04-15T12:06:37.329Z,96589.03
2023-04-15T12:09:12.043Z,96590.38
2023-04-15T12:11:43.517Z,96593.66
2023-04-15T12:14:17.368Z,96600.81
2023-04-15T12:16:52.518Z,96593.50
2023-04-15T12:19:26.362Z,96606.59
2023-04-15T12:22:00.685Z,96605.41
2023-04-15T12:24:31.013Z,96605.09
2023-04-15T12:27:03.851Z,96602.13
2023-04-15T12:29:32.760Z,96606.22
2023-04-15T12:32:08.682Z,96609.38
2023-04-15T12:34:40.231Z,96613.34
2023-04-15T12:37:10.665Z,96615.66
2023-04-15T12:39:41.330Z,96623.59
2023-04-15T12:42:13.614Z,96615.66
2023-04-15T12:44:42.239Z,96622.09
2023-04-15T12:47:12.146Z,96620.09
2023-04-15T12:49:42.070Z,96621.56
2023-04-15T12:52:10.454Z,96626.19
2023-04-15T12:54:38.776Z,96622.25
2023-04-15T12:57:08.227Z,96634.31
2023-04-15T12:59:36.695Z,96621.75
2023-04-15T13:02:05.870Z,96632.81
2023-04-15T13:04:34.440Z,96634.97
2023-04-15T13:07:04.550Z,96633.00
2023-04-15T13:09:33.165Z,96635.94
2023-04-15T13:12:01.750Z,96641.75
2023-04-15T13:14:30.246Z,96642.88
2023-04-15T13:16:58.603Z,96650.81
2023-04-15T13:19:27.192Z,96647.03
2023-04-15T13:21:55.530Z,96655.59
2023-04-15T13:24:25.777Z,96658.94
2023-04-15T13:26:54.240Z,96664.38
2023-04-15T13:29:22.738Z,96663.72
2023-04-15T13:31:51.468Z,96666.38
2023-04-15T13:34:19.819Z,96665.34
2023-04-15T13:36:48.872Z,96671.31
2023-04-15T13:39:17.204Z,96673.81
2023-04-15T13:41:48.481Z,96674.31
2023-04-15T13:44:16.923Z,96676.09
2023-04-15T13:46:45.518Z,96673.47
2023-04-15T13:49:13.830Z,96684.56
2023-04-15T13:51:42.443Z,96684.38
2023-04-15T13:54:10.794Z,96685.03
2023-04-15T13:56:39.109Z,96684.22
2023-04-15T13:59:08.795Z,96682.53
2023-04-15T14:01:37.373Z,96677.91
2023-04-15T14:04:06.155Z,96692.81
2023-04-15T14:06:34.955Z,96699.94
2023-04-15T14:09:04.080Z,96693.16
2023-04-15T14:11:32.744Z,96699.78
2023-04-15T14:14:01.064Z,96698.94
2023-04-15T14:16:30.915Z,96691.84
2023-04-15T14:18:59.903Z,96699.59
2023-04-15T14:21:28.905Z,96700.25
2023-04-15T14:23:57.273Z,96699.09
2023-04-15T14:26:26.185Z,96707.06
2023-04-15T14:29:02.545Z,96711.34
2023-04-15T14:31:32.479Z,96712.19
2023-04-15T14:34:00.770Z,96719.47
2023-04-15T14:36:29.188Z,96728.59
2023-04-15T14:39:00.645Z,96719.13
2023-04-15T14:41:29.142Z,96727.09
2023-04-15T14:43:57.712Z,96731.91
2023-04-15T14:46:26.730Z,96737.38
2023-04-15T14:48:56.631Z,96737.56
2023-04-15T14:51:25.136Z,96742.03
2023-04-15T14:53:53.574Z,96746.16
2023-04-15T14:56:22.533Z,96753.47
2023-04-15T14:58:53.197Z,96745.69
2023-04-15T15:01:22.107Z,96751.16
2023-04-15T15:03:51.171Z,96756.44
2023-04-15T15:06:22.705Z,96757.91
2023-04-15T15:08:54.306Z,96760.56
2023-04-15T15:11:22.691Z,96768.69
2023-04-15T15:13:51.178Z,96766.19
2023-04-15T15:16:19.785Z,96777.81
2023-04-15T15:18:48.243Z,96775.00
2023-04-15T15:21:16.692Z,96775.00
2023-04-15T15:23:48.322Z,96788.25
2023-04-15T15:26:16.938Z,96788.06
2023-04-15T15:28:45.604Z,96782.94
2023-04-15T15:31:14.146Z,96787.75
2023-04-15T15:33:42.601Z,96792.03
2023-04-15T15:36:11.993Z,96797.16
2023-04-15T15:38:42.576Z,96797.16
2023-04-15T15:41:12.510Z,96803.47
2023-04-15T15:43:40.942Z,96801.78
2023-04-15T15:46:09.885Z,96809.75
2023-04-15T15:48:38.399Z,96814.06
2023-04-15T15:51:07.574Z,96812.22
2023-04-15T15:53:36.162Z,96816.88
2023-04-15T15:56:04.856Z,96814.06
2023-04-15T15:58:37.304Z,96814.72
2023-04-15T16:01:05.934Z,96816.38
2023-04-15T16:03:34.541Z,96816.56
2023-04-15T16:06:03.103Z,96812.91
2023-04-15T16:08:31.685Z,96827.97
2023-04-15T16:11:00.195Z,96830.63
2023-04-15T16:13:29.037Z,96839.56
2023-04-15T16:15:58.957Z,96831.94
2023-04-15T16:18:27.477Z,96841.72
2023-04-15T16:20:56.058Z,96847.84
2023-04-15T16:23:24.910Z,96847.69
2023-04-15T16:25:53.316Z,96855.78
2023-04-15T16:28:26.672Z,96849.81
2023-04-15T16:30:56.267Z,96858.63
2023-04-15T16:33:26.150Z,96857.13
2023-04-15T16:35:54.705Z,96863.41
2023-04-15T16:38:29.061Z,96866.91
2023-04-15T16:41:01.762Z,96866.38
2023-04-15T16:43:31.686Z,96866.56
2023-04-15T16:46:00.212Z,96874.66
2023-04-15T16:48:31.612Z,96878.00
2023-04-15T16:51:00.016Z,96874.66
2023-04-15T16:53:28.745Z,96886.44
2023-04-15T16:55:57.185Z,96889.09
2023-04-15T16:58:28.491Z,96892.72
2023-04-15T17:00:56.998Z,96890.25
2023-04-15T17:03:25.620Z,96904.47
2023-04-15T17:05:55.649Z,96901.81
2023-04-15T17:08:31.204Z,96893.88
2023-04-15T17:10:59.645Z,96894.88
2023-04-15T17:13:28.080Z,96891.38
2023-04-15T17:15:56.534Z,96896.69
2023-04-15T17:18:25.101Z,96905.31
2023-04-15T17:20:54.923Z,96908.63
2023-04-15T17:23:23.295Z,96913.94
2023-04-15T17:25:51.953Z,96912.94
2023-04-15T17:28:20.374Z,96919.88
2023-04-15T17:30:48.878Z,96930.31
2023-04-15T17:33:55.827Z,96934.63
2023-04-15T17:36:07.497Z,96947.72
2023-04-15T17:38:35.902Z,96944.22
2023-04-15T17:41:04.881Z,96949.53
2023-04-15T17:43:38.406Z,96951.19
2023-04-15T17:46:08.661Z,96951.34
2023-04-15T17:48:37.022Z,96949.38
2023-04-15T17:51:06.886Z,96959.13
2023-04-15T17:53:35.565Z,96955.66
2023-04-15T17:56:03.952Z,96964.44
2023-04-15T17:58:34.058Z,96965.25
2023-04-15T18:01:02.406Z,96973.06
2023-04-15T18:03:30.871Z,96980.00
2023-04-15T18:06:00.746Z,96974.69
2023-04-15T18:08:30.706Z,96980.84
2023-04-15T18:10:59.098Z,96982.50
2023-04-15T18:13:27.385Z,96983.50
2023-04-15T18:15:56.945Z,96993.09
2023-04-15T18:18:25.449Z,96993.09
2023-04-15T18:20:53.863Z,96997.41
2023-04-15T18:23:22.320Z,96998.22
2023-04-15T18:25:52.055Z,97001.88
2023-04-15T18:28:22.186Z,97005.38
2023-04-15T18:30:50.695Z,97019.59
2023-04-15T18:33:19.119Z,97015.97
2023-04-15T18:35:49.413Z,97017.94
2023-04-15T18:38:18.480Z,97018.25
2023-04-15T18:40:46.838Z,97030.03
2023-04-15T18:43:16.768Z,97029.53
2023-04-15T18:45:45.513Z,97038.81
2023-04-15T18:48:14.291Z,97038.97
2023-04-15T18:50:43.755Z,97043.28
2023-04-15T18:53:12.134Z,97045.28
2023-04-15T18:55:41.332Z,97051.88
2023-04-15T18:58:09.689Z,97054.34
2023-04-15T19:00:41.902Z,97065.13
2023-04-15T19:03:10.401Z,97061.50
2023-04-15T19:05:38.838Z,97063.47
2023-04-15T19:08:07.496Z,97067.13
2023-04-15T19:10:36.080Z,97071.56
2023-04-15T19:13:04.748Z,97071.56
2023-04-15T19:15:33.709Z,97079.53
2023-04-15T19:18:05.346Z,97080.53
2023-04-15T19:20:37.183Z,97083.19
2023-04-15T19:23:07.190Z,97085.00
2023-04-15T19:25:35.549Z,97092.94
2023-04-15T19:28:03.979Z,97086.00
2023-04-15T19:30:33.626Z,97089.59
2023-04-15T19:33:03.601Z,97100.38
2023-04-15T19:35:32.008Z,97101.72
2023-04-15T19:38:00.440Z,97096.06
2023-04-15T19:43:07.809Z,97099.88
2023-04-15T19:45:36.639Z,97094.22
2023-04-15T19:48:07.164Z,97104.81
2023-04-15T19:50:37.202Z,97102.31
2023-04-15T19:53:05.681Z,97102.31
2023-04-15T19:55:34.099Z,97106.13
2023-04-15T19:58:02.761Z,97108.78
2023-04-15T20:00:31.872Z,97117.69
2023-04-15T20:03:00.539Z,97116.19
2023-04-15T20:05:30.665Z,97121.50
2023-04-15T20:07:59.963Z,97117.84
2023-04-15T20:10:28.377Z,97118.19
2023-04-15T20:12:56.654Z,97126.94
2023-04-15T20:15:25.041Z,97120.16
2023-04-15T20:17:53.514Z,97120.84
2023-04-15T20:20:22.412Z,97134.09
2023-04-15T20:22:53.103Z,97136.53
2023-04-15T20:25:21.573Z,97141.03
2023-04-15T20:27:49.876Z,97139.53
2023-04-15T20:30:18.210Z,97148.13
2023-04-15T20:32:46.672Z,97141.84
2023-04-15T20:35:15.016Z,97146.31
2023-04-15T20:37:45.362Z,97148.28
2023-04-15T20:40:16.077Z,97148.28
2023-04-15T20:42:44.524Z,97155.28
2023-04-15T20:45:13.008Z,97155.28
2023-04-15T20:47:41.575Z,97156.09
2023-04-15T20:50:11.817Z,97155.28
2023-04-15T20:52:40.380Z,97161.38
2023-04-15T20:55:10.038Z,97165.88
2023-04-15T20:57:39.695Z,97167.38
2023-04-15T21:00:11.076Z,97166.69
2023-04-15T21:02:39.630Z,97165.88
2023-04-15T21:05:08.343Z,97166.03
2023-04-15T21:07:36.715Z,97173.63
2023-04-15T21:10:05.480Z,97166.84
2023-04-15T21:12:33.821Z,97181.41
2023-04-15T21:15:03.679Z,97176.13
2023-04-15T21:17:33.577Z,97182.25
2023-04-15T21:20:02.165Z,97180.44
2023-04-15T21:22:31.281Z,97177.81
2023-04-15T21:24:59.638Z,97183.75
2023-04-15T21:27:27.968Z,97181.41
2023-04-15T21:29:56.361Z,97194.34
2023-04-15T21:32:26.195Z,97191.84
2023-04-15T21:34:54.597Z,97200.66
2023-04-15T21:37:22.980Z,97196.19
2023-04-15T21:39:51.319Z,97201.50
2023-04-15T21:42:19.720Z,97203.28
2023-04-15T21:44:48.058Z,97204.28
2023-04-15T21:47:16.456Z,97214.03
2023-04-15T21:49:46.447Z,97208.25
2023-04-15T21:52:14.718Z,97218.00
2023-04-15T21:54:43.221Z,97206.56
2023-04-15T21:57:25.409Z,97219.81
2023-04-15T21:59:53.705Z,97216.34
2023-04-15T22:02:22.117Z,97224.13
2023-04-15T22:04:51.886Z,97232.09
2023-04-15T22:07:20.417Z,97233.06
2023-04-15T22:09:48.771Z,97231.09
2023-04-15T22:12:17.197Z,97231.25
2023-04-15T22:14:45.447Z,97235.53
2023-04-15T22:17:16.844Z,97234.75
2023-04-15T22:19:45.751Z,97246.16
2023-04-15T22:22:15.422Z,97241.00
2023-04-15T22:24:43.814Z,97240.19
2023-04-15T22:27:12.283Z,97243.66
2023-04-15T22:29:40.736Z,97250.63
2023-04-15T22:32:09.224Z,97251.44
2023-04-15T22:34:37.569Z,97249.47
2023-04-15T22:37:05.987Z,97247.63
2023-04-15T22:39:35.902Z,97253.78
2023-04-15T22:42:04.433Z,97250.28
2023-04-15T22:44:32.724Z,97261.41
2023-04-15T22:47:01.233Z,97262.56
2023-04-15T22:49:29.532Z,97266.72
2023-04-15T22:51:57.902Z,97265.88
2023-04-15T22:54:26.376Z,97263.38
2023-04-15T22:56:56.413Z,97266.88
2023-04-15T22:59:25.075Z,97272.00
2023-04-15T23:01:54.002Z,97267.03
2023-04-15T23:04:25.643Z,97274.13
2023-04-15T23:06:55.858Z,97264.38
2023-04-15T23:09:24.222Z,97269.53
2023-04-15T23:11:52.551Z,97270.53
2023-04-15T23:14:22.261Z,97273.31
2023-04-15T23:16:50.615Z,97272.31
2023-04-15T23:19:18.937Z,97275.13
2023-04-15T23:21:47.424Z,97275.97
2023-04-15T23:24:18.748Z,97273.63
2023-04-15T23:26:47.113Z,97278.94
2023-04-15T23:29:15.571Z,97283.38
2023-04-15T23:31:45.349Z,97284.38
2023-04-15T23:34:13.733Z,97287.03
2023-04-15T23:36:42.184Z,97283.69
2023-04-15T23:39:10.644Z,97284.38
2023-04-15T23:41:39.145Z,97287.88
2023-04-15T23:44:08.151Z,97288.69
2023-04-15T23:46:36.601Z,97282.56
2023-04-15T23:49:09.482Z,97290.50
2023-04-15T23:51:38.081Z,97296.63
2023-04-15T23:54:06.363Z,97288.03
2023-04-15T23:56:34.782Z,97295.81
2023-04-15T23:59:03.173Z,97297.63
